x

Dauphin Island, Al (dpia1) Weather Station

11:00pm - Wed 22nd Mar 2017 All times are CDT. -5 hours from GMT.

  • Wind
    1mph
  • Air Temp 71°f
  • Sea Pressure 1021mb
  • Dauphin Island, Al
  • Dauphin Island, Al

More Historic Weather Station data

Upgrade to MSW Pro to gain access to the past 30 days of data for over 8000 Wavebouys and Weather Stations around the globe.

Join Pro

Comparision Forecast

View Surf forecast
   
Wed 03/22 11:00pm 1
mph
1021mb 71f
10:00pm 5 7 mph 1020.4mb 69f
9:00pm 6 8 mph 1019.8mb 69f
8:00pm 5 7 mph 1019.5mb 70f
7:00pm 6 8 mph 1019.1mb 71f
6:00pm 9 11 mph 1018.3mb 71f
5:00pm 10 14 mph 1018.1mb 73f
4:00pm 10 14 mph 1018.2mb 72f
3:00pm 14 16 mph 1018.3mb 71f
2:00pm 11 15 mph 1019mb 71f
1:00pm 11 14 mph 1019.8mb 72f
12:00pm 8 10 mph 1020.1mb 73f
11:00am 8 9 mph 1020.5mb 71f
10:00am 10 11 mph 1020.4mb 68f
9:00am 9 11 mph 1020.5mb 66f
8:00am 16 18 mph 1020.4mb 66f
7:00am 13 16 mph 1018.7mb 67f
6:00am 17 22 mph 1018.2mb 68f
5:00am 14 17 mph 1017.8mb 69f
4:00am 13 16 mph 1017.6mb 69f
3:00am 11 16 mph 1017.8mb 69f
2:00am 11 15 mph 1018mb 69f
1:00am 9 13 mph 1018.4mb 69f
12:00am 13 18 mph 1018.6mb 69f
Tue 03/21 11:00pm 11 15 mph 1018.3mb 69f
10:00pm 11 16 mph 1018.6mb 69f
9:00pm 10 15 mph 1018.4mb 69f
8:00pm 9 11 mph 1017.9mb 69f
7:00pm 8 10 mph 1017.4mb 69f
6:00pm 10 13 mph 1017.7mb 70f
5:00pm 9 13 mph 1018mb 71f
4:00pm 14 17 mph 1018.6mb 72f
3:00pm 14 20 mph 1019.3mb 72f
2:00pm 14 21 mph 1019.9mb 71f
1:00pm 13 18 mph 1021mb 71f
12:00pm 15 18 mph 1021.5mb 70f
11:00am 14 18 mph 1021.9mb 70f
10:00am 14 17 mph 1021.5mb 69f
9:00am 13 14 mph 1021.2mb 68f
8:00am 8 13 mph 1020.7mb 68f
7:00am 9 14 mph 1020.4mb 67f
6:00am 9 13 mph 1020mb 67f
5:00am 6 9 mph 1019.9mb 66f
4:00am 8 11 mph 1019.9mb 67f
3:00am 8 11 mph 1019.9mb 67f
2:00am 9 13 mph 1020.3mb 67f
1:00am 10 15 mph 1020.5mb 67f
12:00am 10 14 mph 1020.7mb 68f
Mon 03/20 11:00pm 10 14 mph 1020.9mb 68f
10:00pm 10 13 mph 1021mb 68f
9:00pm 7 10 mph 1020.8mb 68f
8:00pm 7 10 mph 1020.4mb 68f
7:00pm 7 9 mph 1020.6mb 68f
6:00pm 9 11 mph 1020.7mb 69f
5:00pm 7 9 mph 1020.8mb 70f
4:00pm 10 14 mph 1021.2mb 69f
3:00pm 13 15 mph 1021.8mb 70f
2:00pm 7 10 mph 1022.4mb 71f
1:00pm 8 9 mph 1023.2mb 69f
12:00pm 6 9 mph 1023.6mb 67f
11:00am 5
mph
1023.7mb 66f
10:00am 3
mph
1023.6mb 66f
9:00am 2 3 mph 1023.3mb 65f
8:00am 2
mph
1023.1mb 64f
7:00am 1 2 mph 1022.6mb 64f
6:00am 6 7 mph 1022.1mb 65f
5:00am 1 2 mph 1021.9mb 65f
4:00am 7 8 mph 1021.8mb 66f
3:00am 6 7 mph 1022.2mb 65f
2:00am 7 8 mph 1022.7mb 66f
1:00am 8 9 mph 1023.1mb 66f
12:00am 7 9 mph 1023.6mb 66f
Sun 03/19 11:00pm 6 7 mph 1023.8mb 66f
10:00pm 3 5 mph 1024mb 65f
9:00pm 2 3 mph 1023.7mb 66f
8:00pm 7 8 mph 1023.1mb 67f
7:00pm 6 8 mph 1023mb 67f
6:00pm 7 9 mph 1022.9mb 69f
5:00pm 8 10 mph 1022.9mb 69f
4:00pm 7 9 mph 1023.2mb 69f
3:00pm 7 8 mph 1023.7mb 68f
2:00pm 7 8 mph 1024.4mb 68f
1:00pm 1 2 mph 1025.6mb 65f
12:00pm 6
mph
1026.4mb 63f
11:00am 7 8 mph 1026.7mb 62f
10:00am 7 8 mph 1026.4mb 62f
9:00am 8 9 mph 1025.7mb 62f
8:00am 8 9 mph 1025.2mb 62f
7:00am 5 6 mph 1024.3mb 62f
6:00am 6
mph
1023.7mb 63f